sensor_id;sensor_type;location;lat;lon;timestamp;P1;durP1;ratioP1;P2;durP2;ratioP2
22164;SDS011;11248;52.512;13.520;2023-07-20T00:01:11;3.40;;;1.85;;
22164;SDS011;11248;52.512;13.520;2023-07-20T00:03:37;3.17;;;1.98;;
22164;SDS011;11248;52.512;13.520;2023-07-20T00:06:03;4.43;;;1.70;;
22164;SDS011;11248;52.512;13.520;2023-07-20T00:08:29;2.40;;;1.90;;
22164;SDS011;11248;52.512;13.520;2023-07-20T00:10:55;3.47;;;2.50;;
22164;SDS011;11248;52.512;13.520;2023-07-20T00:13:21;2.60;;;2.30;;
22164;SDS011;11248;52.512;13.520;2023-07-20T00:15:47;3.10;;;1.92;;
22164;SDS011;11248;52.512;13.520;2023-07-20T00:18:13;3.05;;;2.53;;
22164;SDS011;11248;52.512;13.520;2023-07-20T00:20:40;3.83;;;2.13;;
22164;SDS011;11248;52.512;13.520;2023-07-20T00:23:05;3.80;;;2.22;;
22164;SDS011;11248;52.512;13.520;2023-07-20T00:25:32;3.90;;;2.35;;
22164;SDS011;11248;52.512;13.520;2023-07-20T00:27:58;3.05;;;1.98;;
22164;SDS011;11248;52.512;13.520;2023-07-20T00:30:24;2.80;;;2.50;;
22164;SDS011;11248;52.512;13.520;2023-07-20T00:32:50;3.47;;;2.33;;
22164;SDS011;11248;52.512;13.520;2023-07-20T00:35:16;2.53;;;2.22;;
22164;SDS011;11248;52.512;13.520;2023-07-20T00:37:42;2.40;;;2.00;;
22164;SDS011;11248;52.512;13.520;2023-07-20T00:40:08;3.00;;;2.22;;
22164;SDS011;11248;52.512;13.520;2023-07-20T00:42:34;2.35;;;2.15;;
22164;SDS011;11248;52.512;13.520;2023-07-20T00:45:00;2.95;;;2.05;;
22164;SDS011;11248;52.512;13.520;2023-07-20T00:47:26;2.70;;;2.10;;
22164;SDS011;11248;52.512;13.520;2023-07-20T00:49:53;2.97;;;2.35;;
22164;SDS011;11248;52.512;13.520;2023-07-20T00:52:20;4.30;;;2.55;;
22164;SDS011;11248;52.512;13.520;2023-07-20T00:54:47;2.53;;;2.15;;
22164;SDS011;11248;52.512;13.520;2023-07-20T00:57:16;3.50;;;2.28;;
22164;SDS011;11248;52.512;13.520;2023-07-20T00:59:43;3.10;;;2.10;;
22164;SDS011;11248;52.512;13.520;2023-07-20T01:02:09;2.97;;;1.90;;
22164;SDS011;11248;52.512;13.520;2023-07-20T01:04:35;4.40;;;2.08;;
22164;SDS011;11248;52.512;13.520;2023-07-20T01:07:03;4.43;;;2.28;;
22164;SDS011;11248;52.512;13.520;2023-07-20T01:14:30;2.38;;;2.10;;
22164;SDS011;11248;52.512;13.520;2023-07-20T01:16:57;2.70;;;2.40;;
22164;SDS011;11248;52.512;13.520;2023-07-20T01:19:23;3.85;;;2.40;;
22164;SDS011;11248;52.512;13.520;2023-07-20T01:21:57;3.30;;;2.30;;
22164;SDS011;11248;52.512;13.520;2023-07-20T01:24:51;4.97;;;2.80;;
22164;SDS011;11248;52.512;13.520;2023-07-20T01:27:22;2.47;;;2.28;;
22164;SDS011;11248;52.512;13.520;2023-07-20T01:32:36;2.42;;;1.90;;
22164;SDS011;11248;52.512;13.520;2023-07-20T01:35:04;2.53;;;2.33;;
22164;SDS011;11248;52.512;13.520;2023-07-20T01:37:31;2.42;;;2.20;;
22164;SDS011;11248;52.512;13.520;2023-07-20T01:39:58;2.88;;;2.47;;
22164;SDS011;11248;52.512;13.520;2023-07-20T01:42:25;3.58;;;2.17;;
22164;SDS011;11248;52.512;13.520;2023-07-20T01:44:51;5.10;;;2.63;;
22164;SDS011;11248;52.512;13.520;2023-07-20T01:47:18;4.28;;;3.50;;
22164;SDS011;11248;52.512;13.520;2023-07-20T01:49:44;3.25;;;2.95;;
22164;SDS011;11248;52.512;13.520;2023-07-20T01:52:09;4.10;;;2.95;;
22164;SDS011;11248;52.512;13.520;2023-07-20T01:54:35;2.63;;;2.30;;
22164;SDS011;11248;52.512;13.520;2023-07-20T01:57:01;3.97;;;2.63;;
22164;SDS011;11248;52.512;13.520;2023-07-20T01:59:27;2.95;;;2.60;;
22164;SDS011;11248;52.512;13.520;2023-07-20T02:01:54;4.13;;;2.90;;
22164;SDS011;11248;52.512;13.520;2023-07-20T02:04:20;4.05;;;2.70;;
22164;SDS011;11248;52.512;13.520;2023-07-20T02:06:46;3.65;;;2.60;;
22164;SDS011;11248;52.512;13.520;2023-07-20T02:09:12;4.18;;;2.72;;
22164;SDS011;11248;52.512;13.520;2023-07-20T02:11:38;2.42;;;2.22;;
22164;SDS011;11248;52.512;13.520;2023-07-20T02:14:04;2.70;;;2.30;;
22164;SDS011;11248;52.512;13.520;2023-07-20T02:16:30;3.03;;;2.40;;
22164;SDS011;11248;52.512;13.520;2023-07-20T02:18:56;3.63;;;2.60;;
22164;SDS011;11248;52.512;13.520;2023-07-20T02:21:23;3.17;;;2.60;;
22164;SDS011;11248;52.512;13.520;2023-07-20T02:23:49;3.20;;;2.72;;
22164;SDS011;11248;52.512;13.520;2023-07-20T02:26:15;2.75;;;2.55;;
22164;SDS011;11248;52.512;13.520;2023-07-20T02:28:41;2.95;;;2.50;;
22164;SDS011;11248;52.512;13.520;2023-07-20T02:31:07;3.88;;;3.20;;
22164;SDS011;11248;52.512;13.520;2023-07-20T02:33:33;5.10;;;2.72;;
22164;SDS011;11248;52.512;13.520;2023-07-20T02:35:59;2.83;;;2.50;;
22164;SDS011;11248;52.512;13.520;2023-07-20T02:38:24;3.15;;;2.22;;
22164;SDS011;11248;52.512;13.520;2023-07-20T02:40:51;3.53;;;3.13;;
22164;SDS011;11248;52.512;13.520;2023-07-20T02:43:16;5.15;;;3.03;;
22164;SDS011;11248;52.512;13.520;2023-07-20T02:45:42;3.45;;;2.80;;
22164;SDS011;11248;52.512;13.520;2023-07-20T02:48:09;3.05;;;2.70;;
22164;SDS011;11248;52.512;13.520;2023-07-20T02:50:35;3.83;;;3.20;;
22164;SDS011;11248;52.512;13.520;2023-07-20T02:53:01;3.83;;;3.25;;
22164;SDS011;11248;52.512;13.520;2023-07-20T02:55:27;4.05;;;3.40;;
22164;SDS011;11248;52.512;13.520;2023-07-20T02:57:53;4.70;;;3.30;;
22164;SDS011;11248;52.512;13.520;2023-07-20T03:00:19;5.45;;;3.95;;
22164;SDS011;11248;52.512;13.520;2023-07-20T03:02:45;4.45;;;4.05;;
22164;SDS011;11248;52.512;13.520;2023-07-20T03:05:17;6.20;;;3.95;;
22164;SDS011;11248;52.512;13.520;2023-07-20T03:07:43;7.40;;;4.85;;
22164;SDS011;11248;52.512;13.520;2023-07-20T03:10:09;4.85;;;3.97;;
22164;SDS011;11248;52.512;13.520;2023-07-20T03:12:35;5.72;;;4.65;;
22164;SDS011;11248;52.512;13.520;2023-07-20T03:15:02;5.93;;;4.78;;
22164;SDS011;11248;52.512;13.520;2023-07-20T03:17:28;6.05;;;5.45;;
22164;SDS011;11248;52.512;13.520;2023-07-20T03:19:54;5.25;;;4.63;;
22164;SDS011;11248;52.512;13.520;2023-07-20T03:22:20;5.22;;;4.03;;
22164;SDS011;11248;52.512;13.520;2023-07-20T03:24:47;5.47;;;4.22;;
22164;SDS011;11248;52.512;13.520;2023-07-20T03:27:12;5.28;;;4.57;;
22164;SDS011;11248;52.512;13.520;2023-07-20T03:29:38;7.63;;;5.75;;
22164;SDS011;11248;52.512;13.520;2023-07-20T03:32:05;5.10;;;4.60;;
22164;SDS011;11248;52.512;13.520;2023-07-20T03:34:31;5.07;;;4.57;;
22164;SDS011;11248;52.512;13.520;2023-07-20T03:36:57;6.10;;;4.47;;
22164;SDS011;11248;52.512;13.520;2023-07-20T03:39:24;4.93;;;4.35;;
22164;SDS011;11248;52.512;13.520;2023-07-20T03:41:49;6.05;;;4.55;;
22164;SDS011;11248;52.512;13.520;2023-07-20T03:44:15;7.57;;;4.47;;
22164;SDS011;11248;52.512;13.520;2023-07-20T03:46:41;7.65;;;4.60;;
22164;SDS011;11248;52.512;13.520;2023-07-20T03:49:07;5.57;;;4.45;;
22164;SDS011;11248;52.512;13.520;2023-07-20T03:51:34;5.03;;;3.88;;
22164;SDS011;11248;52.512;13.520;2023-07-20T03:54:00;5.85;;;4.82;;
22164;SDS011;11248;52.512;13.520;2023-07-20T03:56:26;7.25;;;5.00;;
22164;SDS011;11248;52.512;13.520;2023-07-20T03:58:52;7.75;;;5.18;;
22164;SDS011;11248;52.512;13.520;2023-07-20T04:01:18;4.90;;;4.38;;
22164;SDS011;11248;52.512;13.520;2023-07-20T04:03:44;8.60;;;5.68;;
22164;SDS011;11248;52.512;13.520;2023-07-20T04:06:09;11.93;;;5.28;;
22164;SDS011;11248;52.512;13.520;2023-07-20T04:08:36;6.15;;;4.68;;
22164;SDS011;11248;52.512;13.520;2023-07-20T04:11:02;9.73;;;5.20;;
22164;SDS011;11248;52.512;13.520;2023-07-20T04:13:28;7.47;;;4.85;;
22164;SDS011;11248;52.512;13.520;2023-07-20T04:15:55;7.13;;;5.28;;
22164;SDS011;11248;52.512;13.520;2023-07-20T04:18:21;6.53;;;4.60;;
22164;SDS011;11248;52.512;13.520;2023-07-20T04:20:47;6.85;;;4.63;;
22164;SDS011;11248;52.512;13.520;2023-07-20T04:23:13;4.53;;;4.00;;
22164;SDS011;11248;52.512;13.520;2023-07-20T04:25:39;4.50;;;4.05;;
22164;SDS011;11248;52.512;13.520;2023-07-20T04:28:08;8.50;;;4.18;;
22164;SDS011;11248;52.512;13.520;2023-07-20T04:30:38;7.13;;;4.43;;
22164;SDS011;11248;52.512;13.520;2023-07-20T04:33:08;6.07;;;4.32;;
22164;SDS011;11248;52.512;13.520;2023-07-20T04:36:07;4.90;;;4.32;;
22164;SDS011;11248;52.512;13.520;2023-07-20T04:38:26;5.75;;;4.75;;
22164;SDS011;11248;52.512;13.520;2023-07-20T04:40:52;6.18;;;5.18;;
22164;SDS011;11248;52.512;13.520;2023-07-20T04:43:17;7.15;;;5.43;;
22164;SDS011;11248;52.512;13.520;2023-07-20T04:45:43;6.70;;;5.63;;
22164;SDS011;11248;52.512;13.520;2023-07-20T04:48:10;7.55;;;5.40;;
22164;SDS011;11248;52.512;13.520;2023-07-20T04:50:42;8.10;;;5.68;;
22164;SDS011;11248;52.512;13.520;2023-07-20T04:53:08;7.50;;;5.70;;
22164;SDS011;11248;52.512;13.520;2023-07-20T04:55:35;8.38;;;6.32;;
22164;SDS011;11248;52.512;13.520;2023-07-20T04:58:01;6.38;;;5.28;;
22164;SDS011;11248;52.512;13.520;2023-07-20T05:00:28;8.95;;;5.97;;
22164;SDS011;11248;52.512;13.520;2023-07-20T05:02:54;9.98;;;6.05;;
22164;SDS011;11248;52.512;13.520;2023-07-20T05:05:20;5.78;;;4.55;;
22164;SDS011;11248;52.512;13.520;2023-07-20T05:07:46;8.70;;;4.70;;
22164;SDS011;11248;52.512;13.520;2023-07-20T05:10:12;7.38;;;5.90;;
22164;SDS011;11248;52.512;13.520;2023-07-20T05:12:38;5.82;;;4.55;;
22164;SDS011;11248;52.512;13.520;2023-07-20T05:15:04;6.00;;;4.68;;
22164;SDS011;11248;52.512;13.520;2023-07-20T05:17:30;6.15;;;4.00;;
22164;SDS011;11248;52.512;13.520;2023-07-20T05:19:55;7.18;;;4.65;;
22164;SDS011;11248;52.512;13.520;2023-07-20T05:22:21;5.65;;;4.63;;
22164;SDS011;11248;52.512;13.520;2023-07-20T05:24:49;4.93;;;3.95;;
22164;SDS011;11248;52.512;13.520;2023-07-20T05:27:15;6.07;;;4.38;;
22164;SDS011;11248;52.512;13.520;2023-07-20T05:29:44;5.25;;;4.20;;
22164;SDS011;11248;52.512;13.520;2023-07-20T05:32:10;5.07;;;3.90;;
22164;SDS011;11248;52.512;13.520;2023-07-20T05:34:36;4.03;;;3.50;;
22164;SDS011;11248;52.512;13.520;2023-07-20T05:37:02;4.80;;;3.42;;
22164;SDS011;11248;52.512;13.520;2023-07-20T05:39:28;5.88;;;3.70;;
22164;SDS011;11248;52.512;13.520;2023-07-20T05:41:54;4.40;;;3.58;;
22164;SDS011;11248;52.512;13.520;2023-07-20T05:44:19;3.67;;;2.83;;
22164;SDS011;11248;52.512;13.520;2023-07-20T05:46:45;4.28;;;3.17;;
22164;SDS011;11248;52.512;13.520;2023-07-20T05:49:11;3.72;;;3.40;;
22164;SDS011;11248;52.512;13.520;2023-07-20T05:51:37;3.85;;;3.50;;
22164;SDS011;11248;52.512;13.520;2023-07-20T05:54:03;9.65;;;4.05;;
22164;SDS011;11248;52.512;13.520;2023-07-20T05:56:29;6.90;;;3.10;;
22164;SDS011;11248;52.512;13.520;2023-07-20T05:58:55;7.30;;;3.20;;
22164;SDS011;11248;52.512;13.520;2023-07-20T06:01:21;4.60;;;3.05;;
22164;SDS011;11248;52.512;13.520;2023-07-20T06:03:47;5.55;;;3.00;;
22164;SDS011;11248;52.512;13.520;2023-07-20T06:06:13;4.90;;;3.50;;
22164;SDS011;11248;52.512;13.520;2023-07-20T06:08:40;5.50;;;3.38;;
22164;SDS011;11248;52.512;13.520;2023-07-20T06:11:05;2.88;;;2.65;;
22164;SDS011;11248;52.512;13.520;2023-07-20T06:13:31;4.38;;;3.10;;
22164;SDS011;11248;52.512;13.520;2023-07-20T06:15:57;4.20;;;2.88;;
22164;SDS011;11248;52.512;13.520;2023-07-20T06:18:23;3.85;;;2.65;;
22164;SDS011;11248;52.512;13.520;2023-07-20T06:20:50;5.00;;;3.05;;
22164;SDS011;11248;52.512;13.520;2023-07-20T06:23:16;5.47;;;3.85;;
22164;SDS011;11248;52.512;13.520;2023-07-20T06:25:42;4.13;;;2.83;;
22164;SDS011;11248;52.512;13.520;2023-07-20T06:28:08;3.80;;;2.70;;
22164;SDS011;11248;52.512;13.520;2023-07-20T06:30:34;5.25;;;3.67;;
22164;SDS011;11248;52.512;13.520;2023-07-20T06:33:00;8.30;;;3.33;;
22164;SDS011;11248;52.512;13.520;2023-07-20T06:35:25;4.57;;;3.20;;
22164;SDS011;11248;52.512;13.520;2023-07-20T06:37:51;3.58;;;2.88;;
22164;SDS011;11248;52.512;13.520;2023-07-20T06:40:17;4.50;;;2.95;;
22164;SDS011;11248;52.512;13.520;2023-07-20T06:42:43;7.28;;;4.10;;
22164;SDS011;11248;52.512;13.520;2023-07-20T06:45:09;8.18;;;4.18;;
22164;SDS011;11248;52.512;13.520;2023-07-20T06:47:37;3.90;;;2.72;;
22164;SDS011;11248;52.512;13.520;2023-07-20T06:50:04;3.72;;;2.90;;
22164;SDS011;11248;52.512;13.520;2023-07-20T06:52:30;4.32;;;2.63;;
22164;SDS011;11248;52.512;13.520;2023-07-20T06:54:56;2.53;;;2.33;;
22164;SDS011;11248;52.512;13.520;2023-07-20T06:57:22;2.72;;;2.45;;
22164;SDS011;11248;52.512;13.520;2023-07-20T06:59:47;3.58;;;2.08;;
22164;SDS011;11248;52.512;13.520;2023-07-20T07:02:13;2.28;;;2.08;;
22164;SDS011;11248;52.512;13.520;2023-07-20T07:04:39;3.67;;;2.33;;
22164;SDS011;11248;52.512;13.520;2023-07-20T07:07:05;2.45;;;1.90;;
22164;SDS011;11248;52.512;13.520;2023-07-20T07:09:31;2.28;;;2.03;;
22164;SDS011;11248;52.512;13.520;2023-07-20T07:11:57;2.22;;;2.03;;
22164;SDS011;11248;52.512;13.520;2023-07-20T07:14:23;2.72;;;2.20;;
22164;SDS011;11248;52.512;13.520;2023-07-20T07:16:49;2.45;;;2.08;;
22164;SDS011;11248;52.512;13.520;2023-07-20T07:19:15;2.75;;;1.60;;
22164;SDS011;11248;52.512;13.520;2023-07-20T07:21:41;2.60;;;1.73;;
22164;SDS011;11248;52.512;13.520;2023-07-20T07:24:07;2.13;;;1.73;;
22164;SDS011;11248;52.512;13.520;2023-07-20T07:26:34;2.00;;;1.30;;
22164;SDS011;11248;52.512;13.520;2023-07-20T07:29:00;3.10;;;1.60;;
22164;SDS011;11248;52.512;13.520;2023-07-20T07:31:26;1.88;;;1.70;;
22164;SDS011;11248;52.512;13.520;2023-07-20T07:33:52;2.30;;;1.48;;
22164;SDS011;11248;52.512;13.520;2023-07-20T07:36:18;3.70;;;1.42;;
22164;SDS011;11248;52.512;13.520;2023-07-20T07:38:44;1.35;;;1.20;;
22164;SDS011;11248;52.512;13.520;2023-07-20T07:41:10;1.27;;;1.08;;
22164;SDS011;11248;52.512;13.520;2023-07-20T07:43:36;1.40;;;1.20;;
22164;SDS011;11248;52.512;13.520;2023-07-20T07:46:03;1.00;;;0.90;;
22164;SDS011;11248;52.512;13.520;2023-07-20T07:48:29;1.75;;;1.02;;
22164;SDS011;11248;52.512;13.520;2023-07-20T07:50:55;4.75;;;1.92;;
22164;SDS011;11248;52.512;13.520;2023-07-20T07:53:21;1.45;;;1.10;;
22164;SDS011;11248;52.512;13.520;2023-07-20T07:55:47;1.77;;;0.82;;
22164;SDS011;11248;52.512;13.520;2023-07-20T07:58:13;1.00;;;0.90;;
22164;SDS011;11248;52.512;13.520;2023-07-20T08:00:39;1.65;;;1.05;;
22164;SDS011;11248;52.512;13.520;2023-07-20T08:03:06;1.65;;;0.70;;
22164;SDS011;11248;52.512;13.520;2023-07-20T08:05:32;1.45;;;0.80;;
22164;SDS011;11248;52.512;13.520;2023-07-20T08:07:59;1.05;;;0.60;;
22164;SDS011;11248;52.512;13.520;2023-07-20T08:10:25;1.00;;;0.80;;
22164;SDS011;11248;52.512;13.520;2023-07-20T08:12:51;0.80;;;0.80;;
22164;SDS011;11248;52.512;13.520;2023-07-20T08:15:17;1.13;;;0.85;;
22164;SDS011;11248;52.512;13.520;2023-07-20T08:17:43;1.63;;;0.57;;
22164;SDS011;11248;52.512;13.520;2023-07-20T08:20:09;0.60;;;0.60;;
22164;SDS011;11248;52.512;13.520;2023-07-20T08:22:38;0.98;;;0.98;;
22164;SDS011;11248;52.512;13.520;2023-07-20T08:25:05;1.00;;;0.70;;
22164;SDS011;11248;52.512;13.520;2023-07-20T08:27:31;1.25;;;0.70;;
22164;SDS011;11248;52.512;13.520;2023-07-20T08:29:57;0.93;;;0.82;;
22164;SDS011;11248;52.512;13.520;2023-07-20T08:32:23;0.93;;;0.77;;
22164;SDS011;11248;52.512;13.520;2023-07-20T08:34:49;0.80;;;0.70;;
22164;SDS011;11248;52.512;13.520;2023-07-20T08:37:15;0.60;;;0.60;;
22164;SDS011;11248;52.512;13.520;2023-07-20T08:39:41;1.42;;;0.70;;
22164;SDS011;11248;52.512;13.520;2023-07-20T08:42:06;1.83;;;0.80;;
22164;SDS011;11248;52.512;13.520;2023-07-20T08:44:33;1.63;;;0.70;;
22164;SDS011;11248;52.512;13.520;2023-07-20T08:47:00;0.60;;;0.60;;
22164;SDS011;11248;52.512;13.520;2023-07-20T08:49:28;1.80;;;0.60;;
22164;SDS011;11248;52.512;13.520;2023-07-20T08:51:54;0.70;;;0.60;;
22164;SDS011;11248;52.512;13.520;2023-07-20T08:54:20;0.70;;;0.50;;
22164;SDS011;11248;52.512;13.520;2023-07-20T08:56:46;1.60;;;0.80;;
22164;SDS011;11248;52.512;13.520;2023-07-20T08:59:13;0.60;;;0.60;;
22164;SDS011;11248;52.512;13.520;2023-07-20T09:01:40;0.68;;;0.57;;
22164;SDS011;11248;52.512;13.520;2023-07-20T09:04:06;0.52;;;0.50;;
22164;SDS011;11248;52.512;13.520;2023-07-20T09:06:32;0.60;;;0.57;;
22164;SDS011;11248;52.512;13.520;2023-07-20T09:08:59;0.55;;;0.40;;
22164;SDS011;11248;52.512;13.520;2023-07-20T09:11:25;2.95;;;0.63;;
22164;SDS011;11248;52.512;13.520;2023-07-20T09:14:05;0.60;;;0.60;;
22164;SDS011;11248;52.512;13.520;2023-07-20T09:16:31;0.93;;;0.50;;
22164;SDS011;11248;52.512;13.520;2023-07-20T09:18:58;0.88;;;0.45;;
22164;SDS011;11248;52.512;13.520;2023-07-20T09:21:24;3.00;;;0.60;;
22164;SDS011;11248;52.512;13.520;2023-07-20T09:23:55;1.15;;;0.55;;
22164;SDS011;11248;52.512;13.520;2023-07-20T09:26:22;0.70;;;0.60;;
22164;SDS011;11248;52.512;13.520;2023-07-20T09:28:49;0.95;;;0.60;;
22164;SDS011;11248;52.512;13.520;2023-07-20T09:31:19;0.98;;;0.50;;
22164;SDS011;11248;52.512;13.520;2023-07-20T09:33:46;0.52;;;0.52;;
22164;SDS011;11248;52.512;13.520;2023-07-20T09:36:12;0.98;;;0.52;;
22164;SDS011;11248;52.512;13.520;2023-07-20T09:38:38;1.33;;;0.50;;
22164;SDS011;11248;52.512;13.520;2023-07-20T09:41:05;1.27;;;0.70;;
22164;SDS011;11248;52.512;13.520;2023-07-20T09:43:32;0.77;;;0.70;;
22164;SDS011;11248;52.512;13.520;2023-07-20T09:45:59;1.35;;;0.70;;
22164;SDS011;11248;52.512;13.520;2023-07-20T09:48:25;0.60;;;0.60;;
22164;SDS011;11248;52.512;13.520;2023-07-20T09:50:52;0.50;;;0.50;;
22164;SDS011;11248;52.512;13.520;2023-07-20T09:53:18;1.98;;;0.50;;
22164;SDS011;11248;52.512;13.520;2023-07-20T09:55:45;0.52;;;0.52;;
22164;SDS011;11248;52.512;13.520;2023-07-20T09:58:12;3.10;;;0.60;;
22164;SDS011;11248;52.512;13.520;2023-07-20T10:00:38;0.75;;;0.55;;
22164;SDS011;11248;52.512;13.520;2023-07-20T10:03:05;1.02;;;0.60;;
22164;SDS011;11248;52.512;13.520;2023-07-20T10:05:32;1.25;;;0.90;;
22164;SDS011;11248;52.512;13.520;2023-07-20T10:08:02;2.50;;;0.80;;
22164;SDS011;11248;52.512;13.520;2023-07-20T10:10:30;0.50;;;0.50;;
22164;SDS011;11248;52.512;13.520;2023-07-20T10:12:57;1.23;;;0.70;;
22164;SDS011;11248;52.512;13.520;2023-07-20T10:15:24;2.78;;;0.80;;
22164;SDS011;11248;52.512;13.520;2023-07-20T10:17:57;0.52;;;0.52;;
22164;SDS011;11248;52.512;13.520;2023-07-20T10:20:23;4.70;;;0.88;;
22164;SDS011;11248;52.512;13.520;2023-07-20T10:22:51;1.83;;;0.80;;
22164;SDS011;11248;52.512;13.520;2023-07-20T10:25:18;0.70;;;0.63;;
22164;SDS011;11248;52.512;13.520;2023-07-20T10:27:45;1.17;;;0.77;;
22164;SDS011;11248;52.512;13.520;2023-07-20T10:30:11;2.97;;;0.70;;
22164;SDS011;11248;52.512;13.520;2023-07-20T10:32:37;0.73;;;0.70;;
22164;SDS011;11248;52.512;13.520;2023-07-20T10:35:11;2.97;;;1.20;;
22164;SDS011;11248;52.512;13.520;2023-07-20T10:37:50;0.70;;;0.63;;
22164;SDS011;11248;52.512;13.520;2023-07-20T10:40:32;1.13;;;0.50;;
22164;SDS011;11248;52.512;13.520;2023-07-20T10:42:59;0.30;;;0.30;;
22164;SDS011;11248;52.512;13.520;2023-07-20T10:50:40;0.82;;;0.45;;
22164;SDS011;11248;52.512;13.520;2023-07-20T10:53:13;1.15;;;0.73;;
22164;SDS011;11248;52.512;13.520;2023-07-20T10:55:40;2.00;;;0.60;;
22164;SDS011;11248;52.512;13.520;2023-07-20T10:58:07;0.82;;;0.60;;
22164;SDS011;11248;52.512;13.520;2023-07-20T11:00:34;1.20;;;0.70;;
22164;SDS011;11248;52.512;13.520;2023-07-20T11:03:00;1.13;;;0.70;;
22164;SDS011;11248;52.512;13.520;2023-07-20T11:05:33;0.90;;;0.77;;
22164;SDS011;11248;52.512;13.520;2023-07-20T11:08:03;0.98;;;0.70;;
22164;SDS011;11248;52.512;13.520;2023-07-20T11:10:30;1.58;;;0.80;;
22164;SDS011;11248;52.512;13.520;2023-07-20T11:13:15;0.77;;;0.73;;
22164;SDS011;11248;52.512;13.520;2023-07-20T11:15:45;0.60;;;0.60;;
22164;SDS011;11248;52.512;13.520;2023-07-20T11:18:11;1.35;;;0.90;;
22164;SDS011;11248;52.512;13.520;2023-07-20T11:20:37;1.00;;;0.90;;
22164;SDS011;11248;52.512;13.520;2023-07-20T11:23:03;1.58;;;0.85;;
22164;SDS011;11248;52.512;13.520;2023-07-20T11:25:38;2.17;;;0.85;;
22164;SDS011;11248;52.512;13.520;2023-07-20T11:28:08;1.38;;;0.68;;
22164;SDS011;11248;52.512;13.520;2023-07-20T11:30:35;1.77;;;0.80;;
22164;SDS011;11248;52.512;13.520;2023-07-20T11:33:01;0.60;;;0.60;;
22164;SDS011;11248;52.512;13.520;2023-07-20T11:35:27;0.70;;;0.70;;
22164;SDS011;11248;52.512;13.520;2023-07-20T11:37:53;1.90;;;0.73;;
22164;SDS011;11248;52.512;13.520;2023-07-20T11:40:19;0.60;;;0.60;;
22164;SDS011;11248;52.512;13.520;2023-07-20T11:42:45;2.55;;;1.17;;
22164;SDS011;11248;52.512;13.520;2023-07-20T11:45:11;0.80;;;0.80;;
22164;SDS011;11248;52.512;13.520;2023-07-20T11:47:40;1.45;;;1.05;;
22164;SDS011;11248;52.512;13.520;2023-07-20T11:50:09;3.78;;;0.88;;
22164;SDS011;11248;52.512;13.520;2023-07-20T11:52:36;1.75;;;0.80;;
22164;SDS011;11248;52.512;13.520;2023-07-20T11:55:02;1.20;;;0.70;;
22164;SDS011;11248;52.512;13.520;2023-07-20T11:57:28;4.32;;;0.70;;
22164;SDS011;11248;52.512;13.520;2023-07-20T11:59:55;1.42;;;0.63;;
22164;SDS011;11248;52.512;13.520;2023-07-20T12:02:22;1.42;;;0.80;;
22164;SDS011;11248;52.512;13.520;2023-07-20T12:04:49;0.93;;;0.93;;
22164;SDS011;11248;52.512;13.520;2023-07-20T12:07:15;1.92;;;0.50;;
22164;SDS011;11248;52.512;13.520;2023-07-20T12:09:41;1.10;;;0.80;;
22164;SDS011;11248;52.512;13.520;2023-07-20T12:12:10;0.70;;;0.60;;
22164;SDS011;11248;52.512;13.520;2023-07-20T12:14:37;0.98;;;0.88;;
22164;SDS011;11248;52.512;13.520;2023-07-20T12:17:03;1.38;;;0.43;;
22164;SDS011;11248;52.512;13.520;2023-07-20T12:19:29;2.45;;;0.60;;
22164;SDS011;11248;52.512;13.520;2023-07-20T12:21:57;0.75;;;0.65;;
22164;SDS011;11248;52.512;13.520;2023-07-20T12:24:26;0.73;;;0.63;;
22164;SDS011;11248;52.512;13.520;2023-07-20T12:26:55;1.55;;;0.60;;
22164;SDS011;11248;52.512;13.520;2023-07-20T12:29:23;2.05;;;0.38;;
22164;SDS011;11248;52.512;13.520;2023-07-20T12:31:49;0.70;;;0.70;;
22164;SDS011;11248;52.512;13.520;2023-07-20T12:34:15;1.35;;;0.50;;
22164;SDS011;11248;52.512;13.520;2023-07-20T12:36:41;0.95;;;0.50;;
22164;SDS011;11248;52.512;13.520;2023-07-20T12:39:07;1.65;;;0.85;;
22164;SDS011;11248;52.512;13.520;2023-07-20T12:41:33;0.63;;;0.50;;
22164;SDS011;11248;52.512;13.520;2023-07-20T12:43:59;1.42;;;0.63;;
22164;SDS011;11248;52.512;13.520;2023-07-20T12:46:25;3.30;;;0.88;;
22164;SDS011;11248;52.512;13.520;2023-07-20T12:48:54;1.52;;;0.60;;
22164;SDS011;11248;52.512;13.520;2023-07-20T12:51:20;0.98;;;0.60;;
22164;SDS011;11248;52.512;13.520;2023-07-20T12:53:46;0.80;;;0.50;;
22164;SDS011;11248;52.512;13.520;2023-07-20T12:56:12;0.40;;;0.40;;
22164;SDS011;11248;52.512;13.520;2023-07-20T12:58:38;1.13;;;0.60;;
22164;SDS011;11248;52.512;13.520;2023-07-20T13:01:04;0.50;;;0.45;;
22164;SDS011;11248;52.512;13.520;2023-07-20T13:03:30;0.47;;;0.47;;
22164;SDS011;11248;52.512;13.520;2023-07-20T13:05:56;1.45;;;0.22;;
22164;SDS011;11248;52.512;13.520;2023-07-20T13:08:23;0.73;;;0.40;;
22164;SDS011;11248;52.512;13.520;2023-07-20T13:10:50;0.70;;;0.60;;
22164;SDS011;11248;52.512;13.520;2023-07-20T13:13:16;0.50;;;0.50;;
22164;SDS011;11248;52.512;13.520;2023-07-20T13:15:43;0.75;;;0.57;;
22164;SDS011;11248;52.512;13.520;2023-07-20T13:18:09;1.85;;;0.57;;
22164;SDS011;11248;52.512;13.520;2023-07-20T13:20:35;0.95;;;0.60;;
22164;SDS011;11248;52.512;13.520;2023-07-20T13:23:01;0.30;;;0.30;;
22164;SDS011;11248;52.512;13.520;2023-07-20T13:25:27;0.63;;;0.50;;
22164;SDS011;11248;52.512;13.520;2023-07-20T13:27:53;0.68;;;0.60;;
22164;SDS011;11248;52.512;13.520;2023-07-20T13:30:19;0.88;;;0.50;;
22164;SDS011;11248;52.512;13.520;2023-07-20T13:32:46;1.02;;;0.52;;
22164;SDS011;11248;52.512;13.520;2023-07-20T13:35:12;1.27;;;0.63;;
22164;SDS011;11248;52.512;13.520;2023-07-20T13:37:38;0.55;;;0.47;;
22164;SDS011;11248;52.512;13.520;2023-07-20T13:40:04;0.57;;;0.57;;
22164;SDS011;11248;52.512;13.520;2023-07-20T13:42:31;0.50;;;0.43;;
22164;SDS011;11248;52.512;13.520;2023-07-20T13:44:57;1.60;;;0.60;;
22164;SDS011;11248;52.512;13.520;2023-07-20T13:47:24;0.80;;;0.40;;
22164;SDS011;11248;52.512;13.520;2023-07-20T13:49:50;0.80;;;0.50;;
22164;SDS011;11248;52.512;13.520;2023-07-20T13:52:16;0.57;;;0.50;;
22164;SDS011;11248;52.512;13.520;2023-07-20T13:54:42;0.28;;;0.28;;
22164;SDS011;11248;52.512;13.520;2023-07-20T13:57:07;1.15;;;0.60;;
22164;SDS011;11248;52.512;13.520;2023-07-20T13:59:33;0.73;;;0.47;;
22164;SDS011;11248;52.512;13.520;2023-07-20T14:01:59;0.30;;;0.30;;
22164;SDS011;11248;52.512;13.520;2023-07-20T14:04:25;0.80;;;0.47;;
22164;SDS011;11248;52.512;13.520;2023-07-20T14:06:51;0.82;;;0.63;;
22164;SDS011;11248;52.512;13.520;2023-07-20T14:09:17;0.50;;;0.50;;
22164;SDS011;11248;52.512;13.520;2023-07-20T14:11:43;0.40;;;0.40;;
22164;SDS011;11248;52.512;13.520;2023-07-20T14:14:09;0.50;;;0.50;;
22164;SDS011;11248;52.512;13.520;2023-07-20T14:16:35;1.02;;;0.50;;
22164;SDS011;11248;52.512;13.520;2023-07-20T14:19:01;1.50;;;0.45;;
22164;SDS011;11248;52.512;13.520;2023-07-20T14:21:27;0.55;;;0.55;;
22164;SDS011;11248;52.512;13.520;2023-07-20T14:23:53;1.00;;;0.60;;
22164;SDS011;11248;52.512;13.520;2023-07-20T14:26:19;0.47;;;0.40;;
22164;SDS011;11248;52.512;13.520;2023-07-20T14:28:45;0.68;;;0.50;;
22164;SDS011;11248;52.512;13.520;2023-07-20T14:31:11;0.57;;;0.52;;
22164;SDS011;11248;52.512;13.520;2023-07-20T14:33:38;1.30;;;0.50;;
22164;SDS011;11248;52.512;13.520;2023-07-20T14:36:04;1.05;;;0.70;;
22164;SDS011;11248;52.512;13.520;2023-07-20T14:38:30;1.55;;;0.50;;
22164;SDS011;11248;52.512;13.520;2023-07-20T14:40:56;1.15;;;0.77;;
22164;SDS011;11248;52.512;13.520;2023-07-20T14:43:22;0.82;;;0.43;;